GFA508 OBBI-OMDB
Flight info
| Callsign | GFA508 |
|---|---|
| Flight time | 0h 50m |
| Altitude | 25000 |
| Route | DCT BHR N697 SODAK P559 VUTEB VUTEB4D |
| Aircraft | A320/M-SDE3FGHIRWY/LB1 |
Departure
| Time | 2026-04-24 23:37 |
|---|---|
| Airport | Bahrain International Airport (OBBI) |
Arrival
| Time | 2026-04-25 00:27 |
|---|---|
| Airport | Dubai International Airport (OMDB) |
| Time | Latitude | Longitude | Altitude | Speed | Heading |
|---|---|---|---|---|---|
| 2026-04-24 23:00 | 26.26620 | 50.63375 | 21 ft | 0 kts | 213° |
| 2026-04-24 23:25 | 26.26623 | 50.63377 | -7 ft | 2 kts | 212° |
| 2026-04-24 23:25 | 26.26637 | 50.63387 | 20 ft | 2 kts | 213° |
| 2026-04-24 23:26 | 26.26650 | 50.63397 | 22 ft | 2 kts | 213° |
| 2026-04-24 23:26 | 26.26664 | 50.63407 | 23 ft | 2 kts | 213° |
| 2026-04-24 23:26 | 26.26678 | 50.63417 | 22 ft | 2 kts | 213° |
| 2026-04-24 23:26 | 26.26692 | 50.63427 | 21 ft | 2 kts | 213° |
| 2026-04-24 23:27 | 26.26705 | 50.63438 | 21 ft | 2 kts | 252° |
| 2026-04-24 23:27 | 26.26705 | 50.63455 | 22 ft | 2 kts | 298° |
| 2026-04-24 23:27 | 26.26703 | 50.63459 | 22 ft | 0 kts | 302° |
| 2026-04-24 23:29 | 26.26706 | 50.63454 | 22 ft | 4 kts | 302° |
| 2026-04-24 23:29 | 26.26728 | 50.63414 | 21 ft | 7 kts | 302° |
| 2026-04-24 23:29 | 26.26762 | 50.63367 | 21 ft | 9 kts | 329° |
| 2026-04-24 23:29 | 26.26820 | 50.63379 | 20 ft | 10 kts | 34° |
| 2026-04-24 23:30 | 26.26831 | 50.63442 | 19 ft | 9 kts | 115° |
| 2026-04-24 23:30 | 26.26801 | 50.63496 | 19 ft | 7 kts | 122° |
| 2026-04-24 23:30 | 26.26777 | 50.63537 | 20 ft | 5 kts | 123° |
| 2026-04-24 23:30 | 26.26734 | 50.63609 | 22 ft | 21 kts | 124° |
| 2026-04-24 23:31 | 26.26653 | 50.63749 | 21 ft | 20 kts | 120° |
| 2026-04-24 23:31 | 26.26582 | 50.63874 | 21 ft | 18 kts | 124° |
| 2026-04-24 23:31 | 26.26520 | 50.63983 | 21 ft | 16 kts | 122° |
| 2026-04-24 23:31 | 26.26460 | 50.64086 | 21 ft | 15 kts | 123° |
| 2026-04-24 23:32 | 26.26405 | 50.64182 | 22 ft | 14 kts | 123° |
| 2026-04-24 23:32 | 26.26354 | 50.64270 | 20 ft | 13 kts | 123° |
| 2026-04-24 23:32 | 26.26306 | 50.64352 | 19 ft | 12 kts | 122° |
| 2026-04-24 23:32 | 26.26261 | 50.64429 | 18 ft | 11 kts | 123° |
| 2026-04-24 23:33 | 26.26224 | 50.64494 | 19 ft | 9 kts | 122° |
| 2026-04-24 23:33 | 26.26197 | 50.64542 | 19 ft | 14 kts | 122° |
| 2026-04-24 23:33 | 26.26094 | 50.64717 | 20 ft | 20 kts | 125° |
| 2026-04-24 23:33 | 26.26025 | 50.64840 | 22 ft | 18 kts | 115° |
| 2026-04-24 23:34 | 26.26027 | 50.64933 | 20 ft | 0 kts | 62° |
| 2026-04-24 23:35 | 26.26038 | 50.64950 | 20 ft | 8 kts | 49° |
| 2026-04-24 23:35 | 26.26077 | 50.64985 | 19 ft | 12 kts | 37° |
| 2026-04-24 23:35 | 26.26153 | 50.64979 | 21 ft | 10 kts | 302° |
| 2026-04-24 23:36 | 26.26196 | 50.64900 | 19 ft | 16 kts | 302° |
| 2026-04-24 23:36 | 26.26290 | 50.64741 | 16 ft | 60 kts | 303° |
| 2026-04-24 23:36 | 26.26633 | 50.64145 | 16 ft | 119 kts | 303° |
| 2026-04-24 23:36 | 26.27168 | 50.63216 | 64 ft | 160 kts | 303° |
| 2026-04-24 23:37 | 26.27772 | 50.62173 | 697 ft | 160 kts | 304° |
| 2026-04-24 23:37 | 26.28621 | 50.61374 | 1256 ft | 168 kts | 338° |
| 2026-04-24 23:37 | 26.31173 | 50.60656 | 1838 ft | 215 kts | 348° |
| 2026-04-24 23:38 | 26.32739 | 50.60440 | 2215 ft | 240 kts | 4° |
| 2026-04-24 23:38 | 26.34337 | 50.61140 | 2804 ft | 259 kts | 36° |
| 2026-04-24 23:38 | 26.35685 | 50.62546 | 3538 ft | 268 kts | 41° |
| 2026-04-24 23:38 | 26.37025 | 50.64026 | 4315 ft | 274 kts | 43° |
| 2026-04-24 23:39 | 26.38372 | 50.65528 | 5049 ft | 280 kts | 43° |
| 2026-04-24 23:39 | 26.39764 | 50.67082 | 5781 ft | 286 kts | 43° |
| 2026-04-24 23:39 | 26.41182 | 50.68662 | 6537 ft | 291 kts | 44° |
| 2026-04-24 23:39 | 26.42628 | 50.70272 | 7251 ft | 296 kts | 44° |
| 2026-04-24 23:40 | 26.44102 | 50.71909 | 7990 ft | 300 kts | 44° |
| 2026-04-24 23:40 | 26.45596 | 50.73561 | 8743 ft | 304 kts | 44° |
| 2026-04-24 23:40 | 26.47112 | 50.75234 | 9503 ft | 308 kts | 45° |
| 2026-04-24 23:40 | 26.48650 | 50.76933 | 10134 ft | 317 kts | 45° |
| 2026-04-24 23:41 | 26.50251 | 50.78709 | 10311 ft | 340 kts | 45° |
| 2026-04-24 23:41 | 26.51986 | 50.80638 | 10466 ft | 363 kts | 45° |
| 2026-04-24 23:41 | 26.53827 | 50.82686 | 10728 ft | 380 kts | 45° |
| 2026-04-24 23:41 | 26.55721 | 50.84790 | 11276 ft | 387 kts | 45° |
| 2026-04-24 23:42 | 26.57642 | 50.86923 | 11890 ft | 391 kts | 45° |
| 2026-04-24 23:42 | 26.59589 | 50.89082 | 12501 ft | 396 kts | 45° |
| 2026-04-24 23:42 | 26.61557 | 50.91267 | 13101 ft | 401 kts | 45° |
| 2026-04-24 23:42 | 26.63552 | 50.93484 | 13702 ft | 406 kts | 44° |
| 2026-04-24 23:43 | 26.65568 | 50.95725 | 14252 ft | 410 kts | 44° |
| 2026-04-24 23:43 | 26.67572 | 50.97954 | 14796 ft | 413 kts | 44° |
| 2026-04-24 23:43 | 26.69617 | 51.00235 | 15354 ft | 417 kts | 44° |
| 2026-04-24 23:43 | 26.71658 | 51.02568 | 15902 ft | 421 kts | 49° |
| 2026-04-24 23:44 | 26.73368 | 51.05233 | 16442 ft | 424 kts | 61° |
| 2026-04-24 23:44 | 26.74577 | 51.08251 | 16980 ft | 427 kts | 73° |
| 2026-04-24 23:44 | 26.75227 | 51.11501 | 17520 ft | 428 kts | 85° |
| 2026-04-24 23:44 | 26.75279 | 51.14834 | 18063 ft | 429 kts | 98° |
| 2026-04-24 23:45 | 26.74728 | 51.18106 | 18548 ft | 428 kts | 110° |
| 2026-04-24 23:45 | 26.73761 | 51.21210 | 19003 ft | 430 kts | 113° |
| 2026-04-24 23:45 | 26.72742 | 51.24371 | 19472 ft | 433 kts | 113° |
| 2026-04-24 23:45 | 26.71714 | 51.27554 | 19927 ft | 436 kts | 112° |
| 2026-04-24 23:46 | 26.70681 | 51.30759 | 20360 ft | 440 kts | 112° |
| 2026-04-24 23:46 | 26.69637 | 51.34001 | 20785 ft | 443 kts | 112° |
| 2026-04-24 23:46 | 26.68589 | 51.37260 | 21207 ft | 446 kts | 112° |
| 2026-04-24 23:46 | 26.67535 | 51.40537 | 21621 ft | 449 kts | 112° |
| 2026-04-24 23:47 | 26.66471 | 51.43842 | 22019 ft | 453 kts | 112° |
| 2026-04-24 23:47 | 26.65399 | 51.47169 | 22406 ft | 456 kts | 112° |
| 2026-04-24 23:47 | 26.64337 | 51.50469 | 22776 ft | 459 kts | 112° |
| 2026-04-24 23:47 | 26.63248 | 51.53857 | 23139 ft | 462 kts | 112° |
| 2026-04-24 23:48 | 26.62158 | 51.57252 | 23490 ft | 465 kts | 112° |
| 2026-04-24 23:48 | 26.61060 | 51.60670 | 23767 ft | 468 kts | 112° |
| 2026-04-24 23:48 | 26.59954 | 51.64106 | 24062 ft | 471 kts | 112° |
| 2026-04-24 23:48 | 26.58853 | 51.67521 | 24366 ft | 473 kts | 112° |
| 2026-04-24 23:49 | 26.57735 | 51.70978 | 24686 ft | 474 kts | 112° |
| 2026-04-24 23:49 | 26.56609 | 51.74449 | 24873 ft | 475 kts | 112° |
| 2026-04-24 23:49 | 26.55472 | 51.77947 | 24911 ft | 483 kts | 112° |
| 2026-04-24 23:49 | 26.54321 | 51.81493 | 24912 ft | 487 kts | 112° |
| 2026-04-24 23:50 | 26.53163 | 51.85068 | 24909 ft | 488 kts | 112° |
| 2026-04-24 23:50 | 26.52007 | 51.88638 | 24907 ft | 488 kts | 112° |
| 2026-04-24 23:50 | 26.50842 | 51.92202 | 24909 ft | 488 kts | 112° |
| 2026-04-24 23:50 | 26.49663 | 51.95762 | 24907 ft | 488 kts | 112° |
| 2026-04-24 23:51 | 26.48491 | 51.99275 | 24903 ft | 488 kts | 112° |
| 2026-04-24 23:51 | 26.47301 | 52.02829 | 24904 ft | 488 kts | 112° |
| 2026-04-24 23:51 | 26.46108 | 52.06390 | 24902 ft | 488 kts | 112° |
| 2026-04-24 23:51 | 26.44918 | 52.09947 | 24901 ft | 488 kts | 112° |
| 2026-04-24 23:52 | 26.43734 | 52.13488 | 24900 ft | 488 kts | 112° |
| 2026-04-24 23:52 | 26.42548 | 52.17033 | 24898 ft | 488 kts | 112° |
| 2026-04-24 23:52 | 26.41358 | 52.20591 | 24893 ft | 488 kts | 112° |
| 2026-04-24 23:52 | 26.40185 | 52.24099 | 24891 ft | 488 kts | 112° |
| 2026-04-24 23:53 | 26.38998 | 52.27647 | 24887 ft | 488 kts | 112° |
| 2026-04-24 23:53 | 26.37808 | 52.31200 | 24885 ft | 488 kts | 112° |
| 2026-04-24 23:53 | 26.36617 | 52.34739 | 24880 ft | 488 kts | 112° |
| 2026-04-24 23:53 | 26.35418 | 52.38288 | 24880 ft | 488 kts | 113° |
| 2026-04-24 23:54 | 26.34174 | 52.41809 | 24880 ft | 488 kts | 114° |
| 2026-04-24 23:54 | 26.32861 | 52.45298 | 24875 ft | 488 kts | 115° |
| 2026-04-24 23:54 | 26.31506 | 52.48768 | 24874 ft | 488 kts | 116° |
| 2026-04-24 23:54 | 26.30131 | 52.52229 | 24871 ft | 488 kts | 116° |
| 2026-04-24 23:55 | 26.28759 | 52.55686 | 24874 ft | 488 kts | 116° |
| 2026-04-24 23:55 | 26.27395 | 52.59156 | 24875 ft | 488 kts | 115° |
| 2026-04-24 23:55 | 26.26051 | 52.62626 | 24877 ft | 488 kts | 115° |
| 2026-04-24 23:55 | 26.24727 | 52.66080 | 24878 ft | 488 kts | 115° |
| 2026-04-24 23:56 | 26.23400 | 52.69559 | 24873 ft | 488 kts | 115° |
| 2026-04-24 23:56 | 26.22071 | 52.73051 | 24872 ft | 488 kts | 115° |
| 2026-04-24 23:56 | 26.20745 | 52.76539 | 24875 ft | 488 kts | 115° |
| 2026-04-24 23:56 | 26.19418 | 52.80021 | 24871 ft | 488 kts | 115° |
| 2026-04-24 23:57 | 26.18088 | 52.83499 | 24869 ft | 488 kts | 115° |
| 2026-04-24 23:57 | 26.16769 | 52.86938 | 24866 ft | 488 kts | 115° |
| 2026-04-24 23:57 | 26.15431 | 52.90416 | 24871 ft | 488 kts | 115° |
| 2026-04-24 23:57 | 26.14092 | 52.93890 | 24873 ft | 488 kts | 115° |
| 2026-04-24 23:58 | 26.12755 | 52.97356 | 24875 ft | 487 kts | 115° |
| 2026-04-24 23:58 | 26.11413 | 53.00835 | 24876 ft | 487 kts | 115° |
| 2026-04-24 23:58 | 26.10086 | 53.04272 | 24876 ft | 487 kts | 115° |
| 2026-04-24 23:58 | 26.08771 | 53.07751 | 24871 ft | 487 kts | 114° |
| 2026-04-24 23:59 | 26.07489 | 53.11234 | 24867 ft | 487 kts | 114° |
| 2026-04-24 23:59 | 26.06216 | 53.14742 | 24864 ft | 487 kts | 114° |
| 2026-04-24 23:59 | 26.04948 | 53.18245 | 24865 ft | 487 kts | 114° |
| 2026-04-24 23:59 | 26.03679 | 53.21735 | 24862 ft | 487 kts | 114° |
| 2026-04-25 00:00 | 26.02405 | 53.25227 | 24860 ft | 487 kts | 114° |
| 2026-04-25 00:00 | 26.01143 | 53.28669 | 24865 ft | 487 kts | 114° |
| 2026-04-25 00:00 | 25.99842 | 53.32197 | 24860 ft | 487 kts | 114° |
| 2026-04-25 00:00 | 25.98553 | 53.35677 | 24856 ft | 487 kts | 114° |
| 2026-04-25 00:01 | 25.97275 | 53.39118 | 24864 ft | 487 kts | 114° |
| 2026-04-25 00:01 | 25.95962 | 53.42650 | 24865 ft | 487 kts | 114° |
| 2026-04-25 00:01 | 25.94683 | 53.46090 | 24863 ft | 487 kts | 114° |
| 2026-04-25 00:01 | 25.93390 | 53.49572 | 24861 ft | 487 kts | 114° |
| 2026-04-25 00:02 | 25.92122 | 53.53066 | 24860 ft | 487 kts | 113° |
| 2026-04-25 00:02 | 25.90895 | 53.56581 | 24856 ft | 488 kts | 113° |
| 2026-04-25 00:02 | 25.89695 | 53.60110 | 24860 ft | 487 kts | 112° |
| 2026-04-25 00:02 | 25.88510 | 53.63634 | 24858 ft | 487 kts | 112° |
| 2026-04-25 00:03 | 25.87321 | 53.67162 | 24856 ft | 487 kts | 112° |
| 2026-04-25 00:03 | 25.86122 | 53.70680 | 24849 ft | 487 kts | 112° |
| 2026-04-25 00:03 | 25.84915 | 53.74191 | 24851 ft | 487 kts | 113° |
| 2026-04-25 00:03 | 25.83699 | 53.77697 | 24851 ft | 487 kts | 113° |
| 2026-04-25 00:04 | 25.82475 | 53.81208 | 24848 ft | 487 kts | 113° |
| 2026-04-25 00:04 | 25.81251 | 53.84712 | 24852 ft | 487 kts | 113° |
| 2026-04-25 00:04 | 25.80028 | 53.88216 | 24856 ft | 487 kts | 113° |
| 2026-04-25 00:04 | 25.78805 | 53.91725 | 24857 ft | 487 kts | 113° |
| 2026-04-25 00:05 | 25.77581 | 53.95238 | 24857 ft | 487 kts | 113° |
| 2026-04-25 00:05 | 25.76362 | 53.98737 | 24856 ft | 487 kts | 113° |
| 2026-04-25 00:05 | 25.75148 | 54.02248 | 24858 ft | 487 kts | 112° |
| 2026-04-25 00:05 | 25.74007 | 54.05757 | 24844 ft | 478 kts | 111° |
| 2026-04-25 00:06 | 25.72937 | 54.09231 | 23968 ft | 476 kts | 110° |
| 2026-04-25 00:06 | 25.71877 | 54.12780 | 22543 ft | 489 kts | 109° |
| 2026-04-25 00:06 | 25.70826 | 54.16330 | 21521 ft | 489 kts | 109° |
| 2026-04-25 00:06 | 25.69764 | 54.19892 | 20815 ft | 482 kts | 110° |
| 2026-04-25 00:07 | 25.68703 | 54.23407 | 20067 ft | 477 kts | 110° |
| 2026-04-25 00:07 | 25.67642 | 54.26878 | 19367 ft | 472 kts | 110° |
| 2026-04-25 00:07 | 25.66585 | 54.30296 | 18851 ft | 464 kts | 110° |
| 2026-04-25 00:07 | 25.65542 | 54.33653 | 18358 ft | 456 kts | 110° |
| 2026-04-25 00:08 | 25.64513 | 54.36952 | 17824 ft | 449 kts | 110° |
| 2026-04-25 00:08 | 25.63497 | 54.40203 | 17247 ft | 443 kts | 110° |
| 2026-04-25 00:08 | 25.62507 | 54.43373 | 16708 ft | 438 kts | 110° |
| 2026-04-25 00:08 | 25.61519 | 54.46544 | 16162 ft | 433 kts | 110° |
| 2026-04-25 00:09 | 25.60540 | 54.49690 | 15635 ft | 429 kts | 110° |
| 2026-04-25 00:09 | 25.59572 | 54.52801 | 15100 ft | 425 kts | 110° |
| 2026-04-25 00:09 | 25.58648 | 54.55911 | 14588 ft | 421 kts | 105° |
| 2026-04-25 00:09 | 25.58161 | 54.59095 | 14081 ft | 418 kts | 94° |
| 2026-04-25 00:10 | 25.58216 | 54.62258 | 13576 ft | 414 kts | 83° |
| 2026-04-25 00:10 | 25.58617 | 54.65406 | 13018 ft | 410 kts | 82° |
| 2026-04-25 00:10 | 25.59020 | 54.68516 | 12466 ft | 405 kts | 82° |
| 2026-04-25 00:10 | 25.59408 | 54.71601 | 11924 ft | 400 kts | 82° |
| 2026-04-25 00:11 | 25.59784 | 54.74641 | 11396 ft | 396 kts | 82° |
| 2026-04-25 00:11 | 25.60031 | 54.76641 | 11047 ft | 392 kts | 82° |
| 2026-04-25 00:11 | 25.60526 | 54.80621 | 10358 ft | 386 kts | 82° |
| 2026-04-25 00:11 | 25.60886 | 54.83497 | 10069 ft | 375 kts | 82° |
| 2026-04-25 00:12 | 25.60929 | 54.86316 | 9987 ft | 357 kts | 99° |
| 2026-04-25 00:12 | 25.60259 | 54.88879 | 10005 ft | 337 kts | 114° |
| 2026-04-25 00:12 | 25.59360 | 54.91205 | 10001 ft | 320 kts | 114° |
| 2026-04-25 00:12 | 25.58501 | 54.93422 | 10005 ft | 305 kts | 114° |
| 2026-04-25 00:13 | 25.57681 | 54.95536 | 10007 ft | 292 kts | 114° |
| 2026-04-25 00:13 | 25.56836 | 54.97695 | 10010 ft | 314 kts | 114° |
| 2026-04-25 00:13 | 25.55960 | 54.99935 | 10009 ft | 319 kts | 114° |
| 2026-04-25 00:13 | 25.55087 | 55.02166 | 10006 ft | 320 kts | 114° |
| 2026-04-25 00:14 | 25.54105 | 55.04375 | 10005 ft | 319 kts | 121° |
| 2026-04-25 00:14 | 25.52999 | 55.06509 | 10003 ft | 319 kts | 121° |
| 2026-04-25 00:14 | 25.51892 | 55.08643 | 10002 ft | 319 kts | 121° |
| 2026-04-25 00:14 | 25.50782 | 55.10779 | 10004 ft | 319 kts | 121° |
| 2026-04-25 00:15 | 25.49674 | 55.12919 | 10005 ft | 319 kts | 121° |
| 2026-04-25 00:15 | 25.48582 | 55.15024 | 10005 ft | 319 kts | 121° |
| 2026-04-25 00:15 | 25.47475 | 55.17153 | 10007 ft | 319 kts | 121° |
| 2026-04-25 00:15 | 25.46368 | 55.19273 | 9837 ft | 317 kts | 123° |
| 2026-04-25 00:16 | 25.45010 | 55.21173 | 9436 ft | 313 kts | 134° |
| 2026-04-25 00:16 | 25.43553 | 55.22958 | 9022 ft | 312 kts | 134° |
| 2026-04-25 00:16 | 25.42592 | 55.24136 | 8847 ft | 308 kts | 134° |
| 2026-04-25 00:16 | 25.41173 | 55.25876 | 8613 ft | 300 kts | 134° |
| 2026-04-25 00:17 | 25.39331 | 55.28134 | 8131 ft | 297 kts | 134° |
| 2026-04-25 00:17 | 25.38397 | 55.29278 | 8017 ft | 296 kts | 133° |
| 2026-04-25 00:17 | 25.37019 | 55.30970 | 8004 ft | 297 kts | 133° |
| 2026-04-25 00:17 | 25.35679 | 55.32662 | 7864 ft | 294 kts | 127° |
| 2026-04-25 00:18 | 25.34618 | 55.34533 | 7733 ft | 273 kts | 122° |
| 2026-04-25 00:18 | 25.33673 | 55.36244 | 7546 ft | 256 kts | 123° |
| 2026-04-25 00:18 | 25.32751 | 55.37898 | 7122 ft | 250 kts | 123° |
| 2026-04-25 00:18 | 25.31841 | 55.39530 | 6648 ft | 248 kts | 123° |
| 2026-04-25 00:19 | 25.30924 | 55.41169 | 5956 ft | 255 kts | 123° |
| 2026-04-25 00:19 | 25.29986 | 55.42842 | 5352 ft | 257 kts | 122° |
| 2026-04-25 00:19 | 25.29047 | 55.44520 | 4833 ft | 255 kts | 122° |
| 2026-04-25 00:19 | 25.28130 | 55.46162 | 4322 ft | 253 kts | 121° |
| 2026-04-25 00:20 | 25.27211 | 55.47811 | 3805 ft | 251 kts | 121° |
| 2026-04-25 00:20 | 25.26301 | 55.49447 | 3296 ft | 248 kts | 121° |
| 2026-04-25 00:20 | 25.25401 | 55.51065 | 2795 ft | 246 kts | 121° |
| 2026-04-25 00:20 | 25.24508 | 55.52673 | 2293 ft | 243 kts | 121° |
| 2026-04-25 00:21 | 25.23642 | 55.54231 | 2049 ft | 229 kts | 121° |
| 2026-04-25 00:21 | 25.22831 | 55.55686 | 2029 ft | 220 kts | 121° |
| 2026-04-25 00:21 | 25.22029 | 55.57127 | 2041 ft | 220 kts | 120° |
| 2026-04-25 00:21 | 25.21227 | 55.58536 | 2034 ft | 219 kts | 126° |
| 2026-04-25 00:22 | 25.20033 | 55.59546 | 2030 ft | 219 kts | 162° |
| 2026-04-25 00:22 | 25.18535 | 55.59631 | 2032 ft | 218 kts | 197° |
| 2026-04-25 00:22 | 25.17206 | 55.58873 | 2030 ft | 215 kts | 226° |
| 2026-04-25 00:22 | 25.16484 | 55.57471 | 2033 ft | 211 kts | 261° |
| 2026-04-25 00:23 | 25.16359 | 55.55858 | 2041 ft | 211 kts | 271° |
| 2026-04-25 00:23 | 25.16358 | 55.54228 | 2036 ft | 212 kts | 272° |
| 2026-04-25 00:23 | 25.16463 | 55.52610 | 2031 ft | 210 kts | 287° |
| 2026-04-25 00:23 | 25.17089 | 55.51172 | 2021 ft | 208 kts | 303° |
| 2026-04-25 00:24 | 25.17846 | 55.49822 | 2007 ft | 209 kts | 303° |
| 2026-04-25 00:24 | 25.18609 | 55.48456 | 1822 ft | 205 kts | 303° |
| 2026-04-25 00:24 | 25.19323 | 55.47173 | 1628 ft | 187 kts | 303° |
| 2026-04-25 00:24 | 25.19972 | 55.46005 | 1387 ft | 168 kts | 302° |
| 2026-04-25 00:25 | 25.20555 | 55.44955 | 1169 ft | 153 kts | 302° |
| 2026-04-25 00:25 | 25.21098 | 55.43978 | 980 ft | 147 kts | 302° |
| 2026-04-25 00:25 | 25.21630 | 55.43022 | 803 ft | 145 kts | 302° |
| 2026-04-25 00:25 | 25.22151 | 55.42084 | 634 ft | 145 kts | 302° |
| 2026-04-25 00:26 | 25.22687 | 55.41118 | 443 ft | 146 kts | 301° |
| 2026-04-25 00:26 | 25.23214 | 55.40168 | 253 ft | 146 kts | 302° |
| 2026-04-25 00:26 | 25.23743 | 55.39213 | 51 ft | 145 kts | 302° |
| 2026-04-25 00:26 | 25.24220 | 55.38356 | 16 ft | 109 kts | 301° |
| 2026-04-25 00:27 | 25.24529 | 55.37801 | 12 ft | 65 kts | 301° |
| 2026-04-25 00:27 | 25.24727 | 55.37430 | 10 ft | 49 kts | 296° |
| 2026-04-25 00:27 | 25.24786 | 55.37103 | 10 ft | 28 kts | 271° |
| 2026-04-25 00:27 | 25.24788 | 55.37024 | 10 ft | 8 kts | 272° |
| 2026-04-25 00:28 | 25.24799 | 55.36955 | 10 ft | 16 kts | 288° |
| 2026-04-25 00:28 | 25.24857 | 55.36810 | 9 ft | 22 kts | 287° |
| 2026-04-25 00:28 | 25.24904 | 55.36646 | 9 ft | 23 kts | 292° |
| 2026-04-25 00:28 | 25.24986 | 55.36490 | 9 ft | 24 kts | 301° |
| 2026-04-25 00:29 | 25.25076 | 55.36329 | 9 ft | 25 kts | 302° |
| 2026-04-25 00:29 | 25.25169 | 55.36160 | 9 ft | 26 kts | 300° |
| 2026-04-25 00:29 | 25.25265 | 55.35987 | 9 ft | 27 kts | 302° |
| 2026-04-25 00:29 | 25.25366 | 55.35804 | 9 ft | 28 kts | 301° |
| 2026-04-25 00:30 | 25.25471 | 55.35616 | 9 ft | 29 kts | 301° |
| 2026-04-25 00:30 | 25.25578 | 55.35421 | 10 ft | 30 kts | 301° |
| 2026-04-25 00:30 | 25.25678 | 55.35243 | 10 ft | 23 kts | 302° |
| 2026-04-25 00:30 | 25.25734 | 55.35143 | 10 ft | 0 kts | 302° |
| 2026-04-25 00:31 | 25.25737 | 55.35139 | 10 ft | 1 kts | 302° |
| 2026-04-25 00:31 | 25.25745 | 55.35122 | 10 ft | 4 kts | 299° |
| 2026-04-25 00:32 | 25.25757 | 55.35099 | 10 ft | 3 kts | 299° |
| 2026-04-25 00:32 | 25.25766 | 55.35080 | 11 ft | 2 kts | 299° |
| 2026-04-25 00:32 | 25.25772 | 55.35068 | 10 ft | 1 kts | 296° |
| 2026-04-25 00:32 | 25.25771 | 55.35032 | 10 ft | 11 kts | 255° |
| 2026-04-25 00:33 | 25.25703 | 55.34968 | 10 ft | 13 kts | 211° |
| 2026-04-25 00:33 | 25.25639 | 55.34925 | 10 ft | 0 kts | 211° |
| 2026-04-25 00:33 | 25.25620 | 55.34912 | 11 ft | 10 kts | 211° |
| 2026-04-25 00:33 | 25.25620 | 55.34854 | 11 ft | 8 kts | 305° |
| 2026-04-25 00:34 | 25.25645 | 55.34808 | 10 ft | 6 kts | 301° |
| 2026-04-25 00:34 | 25.25646 | 55.34806 | 10 ft | 0 kts | 301° |